sensor_id;sensor_type;location;lat;lon;timestamp;pressure;altitude;pressure_sealevel;temperature;humidity
62708;BME280;48769;51.624;5.886;2022-12-29T00:02:25;99939.56;;;13.27;100.00
62708;BME280;48769;51.624;5.886;2022-12-29T00:04:50;99935.53;;;13.21;100.00
62708;BME280;48769;51.624;5.886;2022-12-29T00:07:16;99931.22;;;13.20;100.00
62708;BME280;48769;51.624;5.886;2022-12-29T00:09:41;99928.34;;;13.23;100.00
62708;BME280;48769;51.624;5.886;2022-12-29T00:12:07;99921.53;;;13.08;100.00
62708;BME280;48769;51.624;5.886;2022-12-29T00:14:32;99910.56;;;13.01;100.00
62708;BME280;48769;51.624;5.886;2022-12-29T00:17:16;99925.25;;;12.94;100.00
62708;BME280;48769;51.624;5.886;2022-12-29T00:19:41;99919.22;;;12.92;100.00
62708;BME280;48769;51.624;5.886;2022-12-29T00:22:25;99913.53;;;12.85;100.00
62708;BME280;48769;51.624;5.886;2022-12-29T00:25:11;99912.69;;;12.85;100.00
62708;BME280;48769;51.624;5.886;2022-12-29T00:27:55;99921.94;;;12.68;100.00
62708;BME280;48769;51.624;5.886;2022-12-29T00:30:40;99917.84;;;12.75;100.00
62708;BME280;48769;51.624;5.886;2022-12-29T00:33:32;99925.28;;;12.70;100.00
62708;BME280;48769;51.624;5.886;2022-12-29T00:36:31;99910.09;;;12.61;100.00
62708;BME280;48769;51.624;5.886;2022-12-29T00:39:06;99900.41;;;12.49;100.00
62708;BME280;48769;51.624;5.886;2022-12-29T00:41:51;99902.09;;;12.50;100.00
62708;BME280;48769;51.624;5.886;2022-12-29T00:44:35;99886.72;;;12.55;100.00
62708;BME280;48769;51.624;5.886;2022-12-29T00:47:00;99885.16;;;12.63;100.00
62708;BME280;48769;51.624;5.886;2022-12-29T00:49:31;99898.19;;;12.67;100.00
62708;BME280;48769;51.624;5.886;2022-12-29T00:52:08;99874.09;;;12.70;100.00
62708;BME280;48769;51.624;5.886;2022-12-29T00:54:36;99893.25;;;12.73;100.00
62708;BME280;48769;51.624;5.886;2022-12-29T00:57:03;99895.19;;;12.71;100.00
62708;BME280;48769;51.624;5.886;2022-12-29T00:59:29;99903.63;;;12.76;100.00
62708;BME280;48769;51.624;5.886;2022-12-29T01:01:55;99880.00;;;12.73;100.00
62708;BME280;48769;51.624;5.886;2022-12-29T01:04:22;99885.81;;;12.78;100.00
62708;BME280;48769;51.624;5.886;2022-12-29T01:06:48;99874.38;;;12.78;100.00
62708;BME280;48769;51.624;5.886;2022-12-29T01:09:14;99879.06;;;12.74;100.00
62708;BME280;48769;51.624;5.886;2022-12-29T01:11:58;99873.53;;;12.77;100.00
62708;BME280;48769;51.624;5.886;2022-12-29T01:14:24;99870.38;;;12.83;100.00
62708;BME280;48769;51.624;5.886;2022-12-29T01:16:50;99861.97;;;12.78;100.00
62708;BME280;48769;51.624;5.886;2022-12-29T01:19:16;99861.00;;;12.79;100.00
62708;BME280;48769;51.624;5.886;2022-12-29T01:21:42;99861.44;;;12.73;100.00
62708;BME280;48769;51.624;5.886;2022-12-29T01:24:07;99863.41;;;12.82;100.00
62708;BME280;48769;51.624;5.886;2022-12-29T01:26:33;99846.28;;;12.75;100.00
62708;BME280;48769;51.624;5.886;2022-12-29T01:28:58;99836.44;;;12.77;100.00
62708;BME280;48769;51.624;5.886;2022-12-29T01:31:23;99840.63;;;12.80;100.00
62708;BME280;48769;51.624;5.886;2022-12-29T01:33:49;99841.09;;;12.74;100.00
62708;BME280;48769;51.624;5.886;2022-12-29T01:36:16;99847.38;;;12.73;100.00
62708;BME280;48769;51.624;5.886;2022-12-29T01:38:42;99836.53;;;12.76;100.00
62708;BME280;48769;51.624;5.886;2022-12-29T01:41:10;99838.09;;;12.78;100.00
62708;BME280;48769;51.624;5.886;2022-12-29T01:43:42;99832.56;;;12.81;100.00
62708;BME280;48769;51.624;5.886;2022-12-29T01:46:25;99835.69;;;12.75;100.00
62708;BME280;48769;51.624;5.886;2022-12-29T01:48:57;99829.41;;;12.76;100.00
62708;BME280;48769;51.624;5.886;2022-12-29T01:51:25;99824.50;;;12.83;100.00
62708;BME280;48769;51.624;5.886;2022-12-29T01:53:52;99821.28;;;12.91;100.00
62708;BME280;48769;51.624;5.886;2022-12-29T01:56:19;99821.75;;;12.84;100.00
62708;BME280;48769;51.624;5.886;2022-12-29T01:58:49;99817.88;;;12.89;100.00
62708;BME280;48769;51.624;5.886;2022-12-29T02:01:18;99813.53;;;12.99;100.00
62708;BME280;48769;51.624;5.886;2022-12-29T02:03:44;99815.00;;;13.03;100.00
62708;BME280;48769;51.624;5.886;2022-12-29T02:06:28;99814.75;;;13.06;100.00
62708;BME280;48769;51.624;5.886;2022-12-29T02:08:56;99818.63;;;13.13;100.00
62708;BME280;48769;51.624;5.886;2022-12-29T02:11:23;99819.72;;;13.10;100.00
62708;BME280;48769;51.624;5.886;2022-12-29T02:13:51;99831.38;;;13.19;100.00
62708;BME280;48769;51.624;5.886;2022-12-29T02:28:05;99836.34;;;13.35;100.00
62708;BME280;48769;51.624;5.886;2022-12-29T02:33:34;99823.81;;;13.37;100.00
62708;BME280;48769;51.624;5.886;2022-12-29T02:39:24;99807.44;;;13.43;100.00
62708;BME280;48769;51.624;5.886;2022-12-29T02:42:09;99817.41;;;13.51;100.00
62708;BME280;48769;51.624;5.886;2022-12-29T02:47:16;99809.94;;;13.45;100.00
62708;BME280;48769;51.624;5.886;2022-12-29T02:50:01;99810.44;;;13.39;100.00
62708;BME280;48769;51.624;5.886;2022-12-29T02:52:39;99796.56;;;13.46;100.00
62708;BME280;48769;51.624;5.886;2022-12-29T02:55:10;99803.19;;;13.41;100.00
62708;BME280;48769;51.624;5.886;2022-12-29T02:57:39;99811.91;;;13.43;100.00
62708;BME280;48769;51.624;5.886;2022-12-29T03:00:07;99794.25;;;13.42;100.00
62708;BME280;48769;51.624;5.886;2022-12-29T03:05:37;99796.94;;;13.30;100.00
62708;BME280;48769;51.624;5.886;2022-12-29T03:10:45;99791.41;;;13.33;100.00
62708;BME280;48769;51.624;5.886;2022-12-29T03:13:24;99790.56;;;13.33;100.00
62708;BME280;48769;51.624;5.886;2022-12-29T03:16:43;99782.22;;;13.38;100.00
62708;BME280;48769;51.624;5.886;2022-12-29T03:19:35;99783.91;;;13.39;100.00
62708;BME280;48769;51.624;5.886;2022-12-29T03:22:06;99797.66;;;13.44;100.00
62708;BME280;48769;51.624;5.886;2022-12-29T03:24:54;99789.22;;;13.39;100.00
62708;BME280;48769;51.624;5.886;2022-12-29T03:27:25;99782.47;;;13.35;100.00
62708;BME280;48769;51.624;5.886;2022-12-29T03:29:57;99790.91;;;13.40;100.00
62708;BME280;48769;51.624;5.886;2022-12-29T03:32:28;99804.19;;;13.40;100.00
62708;BME280;48769;51.624;5.886;2022-12-29T03:34:56;99796.81;;;13.43;100.00
62708;BME280;48769;51.624;5.886;2022-12-29T03:37:26;99785.13;;;13.46;100.00
62708;BME280;48769;51.624;5.886;2022-12-29T03:39:54;99777.50;;;13.41;100.00
62708;BME280;48769;51.624;5.886;2022-12-29T03:42:21;99783.41;;;13.45;100.00
62708;BME280;48769;51.624;5.886;2022-12-29T03:44:53;99786.31;;;13.42;100.00
62708;BME280;48769;51.624;5.886;2022-12-29T03:47:19;99781.72;;;13.44;100.00
62708;BME280;48769;51.624;5.886;2022-12-29T03:49:44;99773.53;;;13.47;100.00
62708;BME280;48769;51.624;5.886;2022-12-29T03:52:09;99770.53;;;13.40;100.00
62708;BME280;48769;51.624;5.886;2022-12-29T03:54:35;99766.78;;;13.31;100.00
62708;BME280;48769;51.624;5.886;2022-12-29T03:57:00;99772.94;;;13.32;100.00
62708;BME280;48769;51.624;5.886;2022-12-29T03:59:25;99782.94;;;13.28;100.00
62708;BME280;48769;51.624;5.886;2022-12-29T04:01:51;99777.41;;;13.31;100.00
62708;BME280;48769;51.624;5.886;2022-12-29T04:04:16;99778.25;;;13.32;100.00
62708;BME280;48769;51.624;5.886;2022-12-29T04:06:41;99784.41;;;13.32;100.00
62708;BME280;48769;51.624;5.886;2022-12-29T04:09:07;99779.81;;;13.23;100.00
62708;BME280;48769;51.624;5.886;2022-12-29T04:11:34;99782.47;;;13.23;100.00
62708;BME280;48769;51.624;5.886;2022-12-29T04:13:59;99774.75;;;13.20;100.00
62708;BME280;48769;51.624;5.886;2022-12-29T04:16:24;99788.34;;;13.16;100.00
62708;BME280;48769;51.624;5.886;2022-12-29T04:18:53;99808.13;;;13.12;100.00
62708;BME280;48769;51.624;5.886;2022-12-29T04:21:18;99800.56;;;13.07;100.00
62708;BME280;48769;51.624;5.886;2022-12-29T04:23:43;99804.88;;;12.97;100.00
62708;BME280;48769;51.624;5.886;2022-12-29T04:26:09;99792.09;;;13.02;100.00
62708;BME280;48769;51.624;5.886;2022-12-29T04:28:35;99809.22;;;12.98;100.00
62708;BME280;48769;51.624;5.886;2022-12-29T04:31:01;99786.56;;;12.94;100.00
62708;BME280;48769;51.624;5.886;2022-12-29T04:33:27;99795.22;;;12.84;100.00
62708;BME280;48769;51.624;5.886;2022-12-29T04:35:53;99784.50;;;12.75;100.00
62708;BME280;48769;51.624;5.886;2022-12-29T04:38:19;99797.94;;;12.60;100.00
62708;BME280;48769;51.624;5.886;2022-12-29T04:40:45;99800.69;;;12.48;100.00
62708;BME280;48769;51.624;5.886;2022-12-29T04:43:11;99798.31;;;12.45;100.00
62708;BME280;48769;51.624;5.886;2022-12-29T04:45:37;99810.28;;;12.37;100.00
62708;BME280;48769;51.624;5.886;2022-12-29T04:48:02;99809.81;;;12.32;100.00
62708;BME280;48769;51.624;5.886;2022-12-29T04:50:28;99799.00;;;12.35;100.00
62708;BME280;48769;51.624;5.886;2022-12-29T04:52:54;99796.06;;;12.27;100.00
62708;BME280;48769;51.624;5.886;2022-12-29T04:55:19;99801.59;;;12.24;100.00
62708;BME280;48769;51.624;5.886;2022-12-29T04:57:45;99795.31;;;12.14;100.00
62708;BME280;48769;51.624;5.886;2022-12-29T05:00:11;99805.44;;;12.20;100.00
62708;BME280;48769;51.624;5.886;2022-12-29T05:02:37;99802.88;;;12.19;100.00
62708;BME280;48769;51.624;5.886;2022-12-29T05:05:02;99796.03;;;12.16;100.00
62708;BME280;48769;51.624;5.886;2022-12-29T05:07:28;99806.56;;;12.05;100.00
62708;BME280;48769;51.624;5.886;2022-12-29T05:09:53;99808.28;;;12.06;100.00
62708;BME280;48769;51.624;5.886;2022-12-29T05:12:18;99806.56;;;12.05;100.00
62708;BME280;48769;51.624;5.886;2022-12-29T05:14:44;99812.31;;;11.99;100.00
62708;BME280;48769;51.624;5.886;2022-12-29T05:17:09;99814.75;;;12.02;100.00
62708;BME280;48769;51.624;5.886;2022-12-29T05:19:34;99811.88;;;12.05;100.00
62708;BME280;48769;51.624;5.886;2022-12-29T05:22:00;99827.13;;;12.01;100.00
62708;BME280;48769;51.624;5.886;2022-12-29T05:24:25;99829.69;;;12.03;100.00
62708;BME280;48769;51.624;5.886;2022-12-29T05:26:50;99833.25;;;12.02;100.00
62708;BME280;48769;51.624;5.886;2022-12-29T05:29:16;99851.53;;;11.93;100.00
62708;BME280;48769;51.624;5.886;2022-12-29T05:31:41;99851.19;;;11.98;100.00
62708;BME280;48769;51.624;5.886;2022-12-29T05:34:06;99853.94;;;11.97;100.00
62708;BME280;48769;51.624;5.886;2022-12-29T05:36:31;99858.63;;;11.93;100.00
62708;BME280;48769;51.624;5.886;2022-12-29T05:38:57;99866.34;;;11.96;100.00
62708;BME280;48769;51.624;5.886;2022-12-29T05:41:22;99868.66;;;12.01;100.00
62708;BME280;48769;51.624;5.886;2022-12-29T05:43:47;99873.09;;;12.00;100.00
62708;BME280;48769;51.624;5.886;2022-12-29T05:46:13;99896.47;;;12.06;100.00
62708;BME280;48769;51.624;5.886;2022-12-29T05:48:38;99893.16;;;12.15;100.00
62708;BME280;48769;51.624;5.886;2022-12-29T05:51:04;99889.94;;;12.23;100.00
62708;BME280;48769;51.624;5.886;2022-12-29T05:53:29;99892.22;;;12.28;100.00
62708;BME280;48769;51.624;5.886;2022-12-29T05:55:54;99899.72;;;12.34;100.00
62708;BME280;48769;51.624;5.886;2022-12-29T05:58:19;99883.75;;;12.35;100.00
62708;BME280;48769;51.624;5.886;2022-12-29T06:00:45;99877.13;;;12.41;100.00
62708;BME280;48769;51.624;5.886;2022-12-29T06:03:10;99885.44;;;12.36;100.00
62708;BME280;48769;51.624;5.886;2022-12-29T06:05:35;99865.69;;;12.40;100.00
62708;BME280;48769;51.624;5.886;2022-12-29T06:08:01;99881.59;;;12.40;100.00
62708;BME280;48769;51.624;5.886;2022-12-29T06:10:26;99890.03;;;12.46;100.00
62708;BME280;48769;51.624;5.886;2022-12-29T06:12:52;99887.41;;;12.46;100.00
62708;BME280;48769;51.624;5.886;2022-12-29T06:15:17;99885.59;;;12.46;100.00
62708;BME280;48769;51.624;5.886;2022-12-29T06:17:43;99883.06;;;12.45;100.00
62708;BME280;48769;51.624;5.886;2022-12-29T06:20:09;99876.13;;;12.55;100.00
62708;BME280;48769;51.624;5.886;2022-12-29T06:22:35;99881.19;;;12.58;100.00
62708;BME280;48769;51.624;5.886;2022-12-29T06:25:00;99887.31;;;12.58;100.00
62708;BME280;48769;51.624;5.886;2022-12-29T06:27:27;99874.53;;;12.52;100.00
62708;BME280;48769;51.624;5.886;2022-12-29T06:29:52;99880.66;;;12.53;100.00
62708;BME280;48769;51.624;5.886;2022-12-29T06:32:17;99882.13;;;12.57;100.00
62708;BME280;48769;51.624;5.886;2022-12-29T06:34:43;99879.25;;;12.60;100.00
62708;BME280;48769;51.624;5.886;2022-12-29T06:37:09;99874.19;;;12.57;100.00
62708;BME280;48769;51.624;5.886;2022-12-29T06:39:35;99877.34;;;12.62;100.00
62708;BME280;48769;51.624;5.886;2022-12-29T06:42:00;99872.75;;;12.64;100.00
62708;BME280;48769;51.624;5.886;2022-12-29T06:44:25;99861.00;;;12.79;100.00
62708;BME280;48769;51.624;5.886;2022-12-29T06:46:51;99866.06;;;12.82;100.00
62708;BME280;48769;51.624;5.886;2022-12-29T06:49:16;99855.47;;;12.82;100.00
62708;BME280;48769;51.624;5.886;2022-12-29T06:51:42;99847.75;;;12.79;100.00
62708;BME280;48769;51.624;5.886;2022-12-29T06:54:07;99854.47;;;12.72;100.00
62708;BME280;48769;51.624;5.886;2022-12-29T06:56:33;99862.78;;;12.68;100.00
62708;BME280;48769;51.624;5.886;2022-12-29T06:58:58;99861.22;;;12.65;100.00
62708;BME280;48769;51.624;5.886;2022-12-29T07:01:26;99856.00;;;12.63;100.00
62708;BME280;48769;51.624;5.886;2022-12-29T07:03:51;99866.97;;;12.59;100.00
62708;BME280;48769;51.624;5.886;2022-12-29T07:06:16;99866.00;;;12.60;100.00
62708;BME280;48769;51.624;5.886;2022-12-29T07:08:42;99863.56;;;12.57;100.00
62708;BME280;48769;51.624;5.886;2022-12-29T07:11:07;99865.38;;;12.56;100.00
62708;BME280;48769;51.624;5.886;2022-12-29T07:13:33;99855.16;;;12.52;100.00
62708;BME280;48769;51.624;5.886;2022-12-29T07:15:59;99866.19;;;12.46;100.00
62708;BME280;48769;51.624;5.886;2022-12-29T07:18:27;99876.34;;;12.52;100.00
62708;BME280;48769;51.624;5.886;2022-12-29T07:20:52;99882.34;;;12.54;100.00
62708;BME280;48769;51.624;5.886;2022-12-29T07:23:18;99894.50;;;12.45;100.00
62708;BME280;48769;51.624;5.886;2022-12-29T07:25:43;99892.84;;;12.55;100.00
62708;BME280;48769;51.624;5.886;2022-12-29T07:28:08;99895.16;;;12.60;100.00
62708;BME280;48769;51.624;5.886;2022-12-29T07:30:36;99901.88;;;12.64;100.00
62708;BME280;48769;51.624;5.886;2022-12-29T07:33:02;99910.63;;;12.77;100.00
62708;BME280;48769;51.624;5.886;2022-12-29T07:35:27;99914.72;;;12.81;100.00
62708;BME280;48769;51.624;5.886;2022-12-29T07:37:53;99940.28;;;12.82;100.00
62708;BME280;48769;51.624;5.886;2022-12-29T07:40:18;99918.72;;;12.87;100.00
62708;BME280;48769;51.624;5.886;2022-12-29T07:42:44;99919.44;;;12.89;100.00
62708;BME280;48769;51.624;5.886;2022-12-29T07:45:10;99926.31;;;12.92;100.00
62708;BME280;48769;51.624;5.886;2022-12-29T07:47:35;99922.84;;;12.91;100.00
62708;BME280;48769;51.624;5.886;2022-12-29T07:50:00;99921.84;;;12.81;100.00
62708;BME280;48769;51.624;5.886;2022-12-29T07:52:26;99931.84;;;12.77;100.00
62708;BME280;48769;51.624;5.886;2022-12-29T07:54:51;99921.47;;;12.74;100.00
62708;BME280;48769;51.624;5.886;2022-12-29T07:57:16;99939.03;;;12.75;100.00
62708;BME280;48769;51.624;5.886;2022-12-29T07:59:42;99923.59;;;12.69;100.00
62708;BME280;48769;51.624;5.886;2022-12-29T08:02:10;99921.94;;;12.68;100.00
62708;BME280;48769;51.624;5.886;2022-12-29T08:04:36;99918.53;;;12.66;100.00
62708;BME280;48769;51.624;5.886;2022-12-29T08:07:02;99926.38;;;12.68;100.00
62708;BME280;48769;51.624;5.886;2022-12-29T08:09:27;99928.06;;;12.69;100.00
62708;BME280;48769;51.624;5.886;2022-12-29T08:11:53;99933.47;;;12.67;100.00
62708;BME280;48769;51.624;5.886;2022-12-29T08:14:19;99930.13;;;12.76;100.00
62708;BME280;48769;51.624;5.886;2022-12-29T08:16:44;99922.69;;;12.81;100.00
62708;BME280;48769;51.624;5.886;2022-12-29T08:19:11;99943.06;;;12.81;100.00
62708;BME280;48769;51.624;5.886;2022-12-29T08:21:36;99934.16;;;12.93;100.00
62708;BME280;48769;51.624;5.886;2022-12-29T08:24:05;99944.41;;;12.98;100.00
62708;BME280;48769;51.624;5.886;2022-12-29T08:26:30;99944.41;;;12.98;100.00
62708;BME280;48769;51.624;5.886;2022-12-29T08:28:56;99950.44;;;13.00;100.00
62708;BME280;48769;51.624;5.886;2022-12-29T08:31:22;99953.38;;;13.08;100.00
62708;BME280;48769;51.624;5.886;2022-12-29T08:33:48;99949.88;;;13.07;100.00
62708;BME280;48769;51.624;5.886;2022-12-29T08:36:14;99937.97;;;13.13;100.00
62708;BME280;48769;51.624;5.886;2022-12-29T08:38:39;99958.19;;;13.14;100.00
62708;BME280;48769;51.624;5.886;2022-12-29T08:41:07;99950.63;;;13.21;100.00
62708;BME280;48769;51.624;5.886;2022-12-29T08:43:32;99951.00;;;13.16;100.00
62708;BME280;48769;51.624;5.886;2022-12-29T08:45:58;99948.44;;;13.15;100.00
62708;BME280;48769;51.624;5.886;2022-12-29T08:48:24;99953.81;;;13.26;100.00
62708;BME280;48769;51.624;5.886;2022-12-29T08:50:50;99948.72;;;13.23;100.00
62708;BME280;48769;51.624;5.886;2022-12-29T08:53:16;99952.47;;;13.31;100.00
62708;BME280;48769;51.624;5.886;2022-12-29T08:55:44;99950.31;;;13.37;100.00
62708;BME280;48769;51.624;5.886;2022-12-29T08:58:10;99944.06;;;13.49;100.00
62708;BME280;48769;51.624;5.886;2022-12-29T09:00:40;99957.31;;;13.60;100.00
62708;BME280;48769;51.624;5.886;2022-12-29T09:03:05;99954.81;;;13.59;100.00
62708;BME280;48769;51.624;5.886;2022-12-29T09:05:30;99953.00;;;13.59;100.00
62708;BME280;48769;51.624;5.886;2022-12-29T09:07:55;99946.84;;;13.70;100.00
62708;BME280;48769;51.624;5.886;2022-12-29T09:10:21;99943.81;;;13.74;99.18
62708;BME280;48769;51.624;5.886;2022-12-29T09:12:46;99944.78;;;13.73;99.99
62708;BME280;48769;51.624;5.886;2022-12-29T09:15:11;99935.13;;;13.72;100.00
62708;BME280;48769;51.624;5.886;2022-12-29T09:17:37;99949.88;;;13.65;100.00
62708;BME280;48769;51.624;5.886;2022-12-29T09:20:07;99947.91;;;13.67;100.00
62708;BME280;48769;51.624;5.886;2022-12-29T09:22:34;99949.34;;;13.71;100.00
62708;BME280;48769;51.624;5.886;2022-12-29T09:24:59;99950.31;;;13.70;100.00
62708;BME280;48769;51.624;5.886;2022-12-29T09:27:24;99931.41;;;13.75;100.00
62708;BME280;48769;51.624;5.886;2022-12-29T09:29:49;99942.03;;;13.75;99.58
62708;BME280;48769;51.624;5.886;2022-12-29T09:32:15;99951.88;;;13.84;99.77
62708;BME280;48769;51.624;5.886;2022-12-29T09:34:40;99953.47;;;13.87;99.32
62708;BME280;48769;51.624;5.886;2022-12-29T09:37:06;99948.41;;;13.72;100.00
62708;BME280;48769;51.624;5.886;2022-12-29T09:39:31;99956.38;;;13.72;100.00
62708;BME280;48769;51.624;5.886;2022-12-29T09:42:29;99968.66;;;13.73;100.00
62708;BME280;48769;51.624;5.886;2022-12-29T09:45:05;99979.28;;;13.73;100.00
62708;BME280;48769;51.624;5.886;2022-12-29T09:47:34;99972.78;;;13.66;100.00
62708;BME280;48769;51.624;5.886;2022-12-29T09:50:29;99996.41;;;13.69;100.00
62708;BME280;48769;51.624;5.886;2022-12-29T09:53:14;99984.47;;;13.64;100.00
62708;BME280;48769;51.624;5.886;2022-12-29T09:55:49;99997.63;;;13.65;100.00
62708;BME280;48769;51.624;5.886;2022-12-29T10:03:19;100009.91;;;13.55;100.00
62708;BME280;48769;51.624;5.886;2022-12-29T10:08:43;100015.56;;;13.50;100.00
62708;BME280;48769;51.624;5.886;2022-12-29T10:11:21;100029.59;;;13.52;100.00
62708;BME280;48769;51.624;5.886;2022-12-29T10:19:18;100039.69;;;13.36;100.00
62708;BME280;48769;51.624;5.886;2022-12-29T10:24:38;100048.94;;;13.30;100.00
62708;BME280;48769;51.624;5.886;2022-12-29T10:27:10;100044.84;;;13.26;100.00
62708;BME280;48769;51.624;5.886;2022-12-29T10:29:40;100063.06;;;13.18;100.00
62708;BME280;48769;51.624;5.886;2022-12-29T10:32:33;100059.22;;;13.22;100.00
62708;BME280;48769;51.624;5.886;2022-12-29T10:35:22;100069.81;;;13.11;100.00
62708;BME280;48769;51.624;5.886;2022-12-29T10:38:05;100073.53;;;13.08;100.00
62708;BME280;48769;51.624;5.886;2022-12-29T10:40:41;100091.47;;;13.05;100.00
62708;BME280;48769;51.624;5.886;2022-12-29T10:43:29;100096.22;;;12.89;100.00
62708;BME280;48769;51.624;5.886;2022-12-29T10:45:58;100110.91;;;12.93;100.00
62708;BME280;48769;51.624;5.886;2022-12-29T10:48:28;100102.06;;;13.05;100.00
62708;BME280;48769;51.624;5.886;2022-12-29T10:50:57;100123.06;;;13.08;100.00
62708;BME280;48769;51.624;5.886;2022-12-29T10:53:30;100124.97;;;13.06;100.00
62708;BME280;48769;51.624;5.886;2022-12-29T10:55:56;100132.34;;;12.90;100.00
62708;BME280;48769;51.624;5.886;2022-12-29T10:58:22;100134.25;;;13.00;100.00
62708;BME280;48769;51.624;5.886;2022-12-29T11:00:53;100142.59;;;13.07;100.00
62708;BME280;48769;51.624;5.886;2022-12-29T11:03:31;100152.22;;;13.08;100.00
62708;BME280;48769;51.624;5.886;2022-12-29T11:06:07;100163.94;;;12.93;100.00
62708;BME280;48769;51.624;5.886;2022-12-29T11:08:38;100157.84;;;12.79;100.00
62708;BME280;48769;51.624;5.886;2022-12-29T11:11:09;100159.53;;;12.80;100.00
62708;BME280;48769;51.624;5.886;2022-12-29T11:13:47;100159.28;;;12.83;100.00
62708;BME280;48769;51.624;5.886;2022-12-29T11:16:13;100155.41;;;12.76;100.00
62708;BME280;48769;51.624;5.886;2022-12-29T11:18:40;100161.50;;;12.90;100.00
62708;BME280;48769;51.624;5.886;2022-12-29T11:23:59;100157.09;;;13.14;100.00
62708;BME280;48769;51.624;5.886;2022-12-29T11:26:26;100171.69;;;12.96;100.00
62708;BME280;48769;51.624;5.886;2022-12-29T11:31:30;100172.25;;;12.88;100.00
62708;BME280;48769;51.624;5.886;2022-12-29T11:33:55;100176.69;;;12.88;100.00
62708;BME280;48769;51.624;5.886;2022-12-29T11:36:23;100187.38;;;12.99;100.00
62708;BME280;48769;51.624;5.886;2022-12-29T11:38:51;100177.41;;;12.90;100.00
62708;BME280;48769;51.624;5.886;2022-12-29T11:41:25;100187.94;;;12.91;100.00
62708;BME280;48769;51.624;5.886;2022-12-29T11:43:54;100189.13;;;12.87;100.00
62708;BME280;48769;51.624;5.886;2022-12-29T11:46:36;100189.81;;;12.89;100.00
62708;BME280;48769;51.624;5.886;2022-12-29T11:49:03;100181.81;;;13.15;100.00
62708;BME280;48769;51.624;5.886;2022-12-29T11:51:53;100195.94;;;13.63;100.00
62708;BME280;48769;51.624;5.886;2022-12-29T11:54:23;100196.50;;;13.79;100.00
62708;BME280;48769;51.624;5.886;2022-12-29T11:56:50;100183.97;;;13.82;100.00
62708;BME280;48769;51.624;5.886;2022-12-29T12:02:11;100192.88;;;13.80;100.00
62708;BME280;48769;51.624;5.886;2022-12-29T12:04:41;100188.00;;;13.74;100.00
62708;BME280;48769;51.624;5.886;2022-12-29T12:07:40;100196.56;;;13.67;100.00
62708;BME280;48769;51.624;5.886;2022-12-29T12:10:13;100189.41;;;13.56;100.00
62708;BME280;48769;51.624;5.886;2022-12-29T12:12:47;100189.84;;;13.50;100.00
62708;BME280;48769;51.624;5.886;2022-12-29T12:15:27;100193.59;;;13.47;100.00
62708;BME280;48769;51.624;5.886;2022-12-29T12:18:00;100189.63;;;13.53;100.00
62708;BME280;48769;51.624;5.886;2022-12-29T12:20:50;100192.84;;;13.69;100.00
62708;BME280;48769;51.624;5.886;2022-12-29T12:26:16;100187.78;;;13.77;100.00
62708;BME280;48769;51.624;5.886;2022-12-29T12:28:55;100186.75;;;13.91;100.00
62708;BME280;48769;51.624;5.886;2022-12-29T12:33:59;100209.78;;;13.91;100.00
62708;BME280;48769;51.624;5.886;2022-12-29T12:36:46;100189.19;;;14.06;100.00
62708;BME280;48769;51.624;5.886;2022-12-29T12:39:26;100200.88;;;13.92;100.00
62708;BME280;48769;51.624;5.886;2022-12-29T12:42:31;100210.50;;;13.82;100.00
62708;BME280;48769;51.624;5.886;2022-12-29T12:55:39;100196.34;;;13.70;100.00
62708;BME280;48769;51.624;5.886;2022-12-29T12:58:36;100205.56;;;14.23;100.00
62708;BME280;48769;51.624;5.886;2022-12-29T13:04:14;100212.06;;;14.31;100.00
62708;BME280;48769;51.624;5.886;2022-12-29T13:15:21;100207.25;;;14.36;100.00
62708;BME280;48769;51.624;5.886;2022-12-29T13:18:03;100210.25;;;14.42;100.00
62708;BME280;48769;51.624;5.886;2022-12-29T13:23:30;100207.59;;;14.31;98.29
62708;BME280;48769;51.624;5.886;2022-12-29T13:38:47;100255.31;;;11.98;100.00
62708;BME280;48769;51.624;5.886;2022-12-29T13:43:44;100253.88;;;12.06;100.00
62708;BME280;48769;51.624;5.886;2022-12-29T13:46:15;100260.00;;;12.07;100.00
62708;BME280;48769;51.624;5.886;2022-12-29T13:48:48;100264.88;;;12.13;100.00
62708;BME280;48769;51.624;5.886;2022-12-29T13:51:16;100269.44;;;12.11;100.00
62708;BME280;48769;51.624;5.886;2022-12-29T13:54:11;100266.66;;;12.00;100.00
62708;BME280;48769;51.624;5.886;2022-12-29T13:56:49;100277.00;;;11.90;100.00
62708;BME280;48769;51.624;5.886;2022-12-29T13:59:27;100286.84;;;11.88;100.00
62708;BME280;48769;51.624;5.886;2022-12-29T14:02:07;100300.09;;;11.74;100.00
62708;BME280;48769;51.624;5.886;2022-12-29T14:04:34;100299.03;;;11.76;100.00
62708;BME280;48769;51.624;5.886;2022-12-29T14:07:03;100300.00;;;11.75;100.00
62708;BME280;48769;51.624;5.886;2022-12-29T14:12:01;100313.44;;;11.72;100.00
62708;BME280;48769;51.624;5.886;2022-12-29T14:14:28;100303.44;;;11.63;100.00
62708;BME280;48769;51.624;5.886;2022-12-29T14:17:08;100310.03;;;11.70;100.00
62708;BME280;48769;51.624;5.886;2022-12-29T14:19:40;100299.22;;;11.73;100.00
62708;BME280;48769;51.624;5.886;2022-12-29T14:22:07;100305.84;;;11.80;100.00
62708;BME280;48769;51.624;5.886;2022-12-29T14:27:01;100306.50;;;11.84;100.00
62708;BME280;48769;51.624;5.886;2022-12-29T14:31:54;100314.59;;;11.95;100.00
62708;BME280;48769;51.624;5.886;2022-12-29T14:37:24;100311.16;;;12.07;100.00
62708;BME280;48769;51.624;5.886;2022-12-29T14:42:30;100306.38;;;12.00;100.00
62708;BME280;48769;51.624;5.886;2022-12-29T14:45:22;100315.88;;;11.89;100.00
62708;BME280;48769;51.624;5.886;2022-12-29T14:47:51;100310.94;;;11.83;100.00
62708;BME280;48769;51.624;5.886;2022-12-29T14:53:02;100309.63;;;11.76;100.00
62708;BME280;48769;51.624;5.886;2022-12-29T14:55:46;100327.16;;;11.64;100.00